Time;durP1;ratioP1;P1;durP2;ratioP2;P2;SDS_P1;SDS_P2;PMS_P1;PMS_P2;Temp;Humidity;BMP_temperature;BMP_pressure;BME280_temperature;BME280_humidity;BME280_pressure;Samples;Min_cycle;Max_cycle;Signal;HPM_P1;HPM_P2
2022/08/31 01:26:24;;;;;;;;;;;17.70;66.30;;;;;;6149547;23;19943;-67
2022/08/31 01:28:51;;;;;;;;;;;17.70;65.90;;;;;;6125886;23;19916;-67
2022/08/31 01:31:25;;;;;;;;;;;17.70;67.10;;;;;;6125936;23;19905;-66
2022/08/31 01:33:52;;;;;;;;;;;17.70;66.20;;;;;;6152693;23;20323;-67
2022/08/31 01:36:19;;;;;;;;;;;17.70;66.00;;;;;;6125588;23;19905;-67
2022/08/31 01:38:45;;;;;;;;;;;17.80;67.40;;;;;;6126331;23;19904;-67
2022/08/31 01:41:12;;;;;;;;;;;18.00;66.70;;;;;;6152296;23;19911;-66
2022/08/31 01:43:38;;;;;;;;;;;18.00;67.00;;;;;;6126212;23;19909;-66
2022/08/31 01:46:08;;;;;;;;;;;17.90;67.30;;;;;;6151793;23;19916;-66
2022/08/31 01:48:34;;;;;;;;;;;17.90;67.10;;;;;;6152216;23;20350;-66
2022/08/31 01:51:01;;;;;;;;;;;17.90;67.20;;;;;;6152308;23;20199;-67
2022/08/31 01:53:28;;;;;;;;;;;17.80;68.40;;;;;;6152201;23;20396;-67
2022/08/31 01:55:55;;;;;;;;;;;17.80;68.60;;;;;;6150737;23;19909;-67
2022/08/31 01:58:21;;;;;;;;;;;18.00;68.50;;;;;;6152008;23;19923;-65
2022/08/31 02:00:48;;;;;;;;;;;18.00;67.50;;;;;;6152191;23;19913;-65
2022/08/31 02:03:14;;;;;;;;;;;18.00;68.40;;;;;;6125774;23;20324;-65
2022/08/31 02:05:41;;;;;;;;;;;18.10;69.00;;;;;;6151267;23;20009;-66
2022/08/31 02:08:08;;;;;;;;;;;18.20;69.40;;;;;;6151591;23;19924;-65
2022/08/31 02:10:35;;;;;;;;;;;18.20;68.00;;;;;;6152271;23;19991;-66
2022/08/31 02:13:02;;;;;;;;;;;18.20;68.60;;;;;;6151737;23;19905;-68
2022/08/31 02:15:28;;;;;;;;;;;18.20;68.90;;;;;;6125729;23;19905;-65
2022/08/31 02:17:55;;;;;;;;;;;18.30;68.60;;;;;;6151397;23;19936;-65
2022/08/31 02:20:21;;;;;;;;;;;18.30;69.50;;;;;;6151554;23;20340;-66
2022/08/31 02:22:48;;;;;;;;;;;18.20;68.90;;;;;;6152134;23;19915;-65
2022/08/31 02:25:16;;;;;;;;;;;18.20;69.20;;;;;;6149712;23;19944;-65
2022/08/31 02:27:42;;;;;;;;;;;18.10;70.40;;;;;;6126081;23;19912;-66
2022/08/31 02:30:10;;;;;;;;;;;18.10;70.80;;;;;;6152040;23;19904;-66
2022/08/31 02:32:37;;;;;;;;;;;18.20;70.40;;;;;;6126147;23;19919;-66
2022/08/31 02:35:04;;;;;;;;;;;18.20;72.00;;;;;;6151220;23;19912;-65
2022/08/31 02:37:30;;;;;;;;;;;18.10;72.40;;;;;;6151716;23;20368;-66
2022/08/31 02:39:57;;;;;;;;;;;18.10;72.80;;;;;;6151249;23;19955;-66
2022/08/31 02:42:24;;;;;;;;;;;18.20;73.70;;;;;;6125999;23;19987;-66
2022/08/31 02:44:50;;;;;;;;;;;18.10;74.60;;;;;;6151566;23;19905;-65
2022/08/31 02:47:17;;;;;;;;;;;18.00;75.10;;;;;;6151741;23;20347;-66
2022/08/31 02:49:43;;;;;;;;;;;18.00;75.00;;;;;;6151633;23;19916;-66
2022/08/31 02:52:10;;;;;;;;;;;17.90;75.10;;;;;;6151576;23;19928;-66
2022/08/31 02:54:37;;;;;;;;;;;17.80;74.90;;;;;;6149694;23;19905;-66
2022/08/31 02:57:03;;;;;;;;;;;17.80;75.30;;;;;;6151337;23;20339;-66
2022/08/31 02:59:30;;;;;;;;;;;17.80;75.60;;;;;;6151796;23;20335;-66
2022/08/31 03:01:56;;;;;;;;;;;17.90;74.80;;;;;;6151725;23;19905;-66
2022/08/31 03:04:23;;;;;;;;;;;17.90;74.50;;;;;;6153752;23;19913;-67
2022/08/31 03:06:50;;;;;;;;;;;17.80;73.70;;;;;;6153320;23;19916;-66
2022/08/31 03:09:16;;;;;;;;;;;17.80;74.20;;;;;;6153529;23;19916;-66
2022/08/31 03:11:43;;;;;;;;;;;17.90;74.80;;;;;;6153698;23;20258;-67
2022/08/31 03:14:09;;;;;;;;;;;17.80;73.50;;;;;;6153349;23;19927;-66
2022/08/31 03:16:38;;;;;;;;;;;17.80;73.50;;;;;;6153466;23;19927;-66
2022/08/31 03:19:05;;;;;;;;;;;17.70;73.40;;;;;;6153470;23;19908;-66
2022/08/31 03:21:32;;;;;;;;;;;17.80;73.60;;;;;;6153663;23;19919;-66
2022/08/31 03:23:58;;;;;;;;;;;17.90;74.20;;;;;;6153634;23;19908;-66
2022/08/31 03:26:25;;;;;;;;;;;18.00;74.30;;;;;;6125032;23;20324;-66
2022/08/31 03:28:52;;;;;;;;;;;17.80;74.80;;;;;;6153850;23;20356;-66
2022/08/31 03:31:19;;;;;;;;;;;17.80;74.40;;;;;;6153511;23;19904;-66
2022/08/31 03:33:46;;;;;;;;;;;17.80;74.20;;;;;;6153082;23;19905;-66
2022/08/31 03:36:14;;;;;;;;;;;17.70;74.40;;;;;;6126830;23;19913;-66
2022/08/31 03:38:41;;;;;;;;;;;17.70;73.90;;;;;;6153517;23;19935;-66
2022/08/31 03:41:08;;;;;;;;;;;17.70;74.00;;;;;;6153497;23;19912;-66
2022/08/31 03:43:35;;;;;;;;;;;17.70;74.00;;;;;;6127339;23;19960;-66
2022/08/31 03:46:03;;;;;;;;;;;17.70;73.40;;;;;;6153137;23;19979;-67
2022/08/31 03:48:29;;;;;;;;;;;17.70;73.10;;;;;;6127472;23;20301;-66
2022/08/31 03:50:56;;;;;;;;;;;17.70;73.40;;;;;;6152906;23;19915;-67
2022/08/31 03:53:23;;;;;;;;;;;17.70;72.10;;;;;;6127269;23;20027;-66
2022/08/31 03:55:49;;;;;;;;;;;17.70;71.70;;;;;;6151111;23;20300;-67
2022/08/31 03:58:16;;;;;;;;;;;17.90;71.70;;;;;;6126882;23;19955;-67
2022/08/31 04:00:43;;;;;;;;;;;18.00;70.70;;;;;;6153135;23;19912;-66
2022/08/31 04:03:09;;;;;;;;;;;18.00;71.10;;;;;;6152747;23;19924;-67
2022/08/31 04:05:40;;;;;;;;;;;18.00;71.10;;;;;;6152647;23;19999;-67
2022/08/31 04:08:06;;;;;;;;;;;17.90;70.90;;;;;;6153052;23;19912;-67
2022/08/31 04:10:33;;;;;;;;;;;17.90;70.70;;;;;;6152659;23;20328;-67
2022/08/31 04:13:00;;;;;;;;;;;17.90;72.10;;;;;;6153148;23;19912;-66
2022/08/31 04:15:26;;;;;;;;;;;17.90;73.20;;;;;;6151946;23;20332;-67
2022/08/31 04:17:53;;;;;;;;;;;17.90;73.50;;;;;;6153145;23;19915;-67
2022/08/31 04:20:19;;;;;;;;;;;17.80;73.20;;;;;;6153353;23;19916;-67
2022/08/31 04:22:46;;;;;;;;;;;17.70;74.80;;;;;;6126454;23;19955;-67
2022/08/31 04:25:13;;;;;;;;;;;17.70;74.90;;;;;;6150846;23;20363;-68
2022/08/31 04:27:39;;;;;;;;;;;17.50;75.90;;;;;;6152788;23;19972;-67
2022/08/31 04:30:06;;;;;;;;;;;17.50;77.50;;;;;;6153110;23;19913;-67
2022/08/31 04:32:33;;;;;;;;;;;17.20;75.70;;;;;;6152627;23;20015;-67
2022/08/31 04:35:00;;;;;;;;;;;17.10;78.40;;;;;;6152042;23;19912;-67
2022/08/31 04:37:27;;;;;;;;;;;17.00;80.80;;;;;;6152280;23;19915;-67
2022/08/31 04:39:56;;;;;;;;;;;16.90;80.80;;;;;;6152708;23;19908;-67
2022/08/31 04:42:23;;;;;;;;;;;16.80;81.30;;;;;;6152924;23;19908;-67
2022/08/31 04:44:50;;;;;;;;;;;16.70;81.60;;;;;;6153044;23;20313;-67
2022/08/31 04:47:17;;;;;;;;;;;16.70;82.80;;;;;;6152654;23;19916;-68
2022/08/31 04:49:43;;;;;;;;;;;16.70;83.00;;;;;;6153035;23;20284;-67
2022/08/31 04:52:10;;;;;;;;;;;16.60;84.60;;;;;;6152753;23;19916;-67
2022/08/31 04:54:37;;;;;;;;;;;16.60;85.40;;;;;;6152796;23;19947;-67
2022/08/31 04:57:03;;;;;;;;;;;16.50;84.60;;;;;;6150177;23;19905;-67
2022/08/31 04:59:30;;;;;;;;;;;16.50;84.00;;;;;;6152636;23;19962;-67
2022/08/31 05:01:57;;;;;;;;;;;16.50;84.00;;;;;;6152519;23;20036;-67
2022/08/31 05:28:51;;;;;;;;;;;16.60;82.70;;;;;;6122853;23;19936;-67
2022/08/31 05:31:18;;;;;;;;;;;16.70;84.00;;;;;;6122817;23;19972;-67
2022/08/31 05:33:44;;;;;;;;;;;16.80;84.10;;;;;;6122561;23;19916;-68
2022/08/31 05:36:11;;;;;;;;;;;16.70;84.10;;;;;;6096884;23;19916;-67
2022/08/31 05:38:38;;;;;;;;;;;16.70;84.10;;;;;;6122558;23;20251;-67
2022/08/31 05:41:05;;;;;;;;;;;16.70;84.10;;;;;;6121976;23;19909;-67
2022/08/31 05:43:31;;;;;;;;;;;16.70;83.10;;;;;;6122781;23;20297;-66
2022/08/31 05:45:58;;;;;;;;;;;16.70;82.40;;;;;;6122182;23;19913;-67
2022/08/31 05:48:26;;;;;;;;;;;16.70;80.60;;;;;;6123035;23;19936;-67
2022/08/31 05:50:53;;;;;;;;;;;16.70;80.10;;;;;;6123528;23;19935;-67
2022/08/31 05:53:19;;;;;;;;;;;16.70;79.70;;;;;;6122553;23;19924;-66
2022/08/31 05:55:46;;;;;;;;;;;16.70;79.60;;;;;;6120730;23;19908;-67
2022/08/31 05:58:12;;;;;;;;;;;16.70;79.90;;;;;;6122912;23;19913;-67
2022/08/31 06:00:39;;;;;;;;;;;16.70;79.20;;;;;;6122461;23;19968;-67
2022/08/31 06:03:06;;;;;;;;;;;16.80;78.40;;;;;;6122576;23;19909;-66
2022/08/31 06:05:32;;;;;;;;;;;16.80;78.20;;;;;;6121883;23;19905;-67
2022/08/31 06:07:59;;;;;;;;;;;16.80;76.30;;;;;;6122763;23;19905;-67
2022/08/31 06:10:25;;;;;;;;;;;16.80;77.30;;;;;;6122654;23;19904;-67
2022/08/31 06:12:52;;;;;;;;;;;16.80;78.30;;;;;;6122557;23;19905;-67
2022/08/31 06:15:19;;;;;;;;;;;16.70;79.40;;;;;;6122350;23;19909;-68
2022/08/31 06:17:46;;;;;;;;;;;16.80;79.70;;;;;;6122030;23;19980;-67
2022/08/31 06:20:14;;;;;;;;;;;16.80;80.40;;;;;;6096612;23;20688;-67
2022/08/31 06:22:45;;;;;;;;;;;16.80;81.40;;;;;;6122312;23;20003;-68
2022/08/31 06:25:16;;;;;;;;;;;16.80;81.50;;;;;;6122673;23;19905;-67
2022/08/31 06:27:43;;;;;;;;;;;16.70;81.40;;;;;;6129069;23;19932;-66
2022/08/31 06:30:10;;;;;;;;;;;16.70;81.70;;;;;;6151950;23;19916;-67
2022/08/31 06:32:36;;;;;;;;;;;16.70;81.70;;;;;;6152076;23;19908;-66
2022/08/31 06:35:03;;;;;;;;;;;16.70;82.20;;;;;;6151988;23;19941;-67
2022/08/31 06:37:30;;;;;;;;;;;16.70;82.50;;;;;;6152591;23;19909;-66
2022/08/31 06:39:56;;;;;;;;;;;16.70;82.40;;;;;;6154384;23;19905;-66
2022/08/31 06:42:23;;;;;;;;;;;16.70;82.40;;;;;;6154637;23;19920;-67
2022/08/31 06:44:49;;;;;;;;;;;16.70;82.40;;;;;;6154115;23;19913;-66
2022/08/31 06:47:17;;;;;;;;;;;16.60;82.60;;;;;;6153897;23;19920;-66
2022/08/31 06:49:44;;;;;;;;;;;16.60;82.60;;;;;;6153709;23;20280;-67
2022/08/31 06:52:11;;;;;;;;;;;16.60;83.00;;;;;;6153870;23;19960;-67
2022/08/31 06:54:37;;;;;;;;;;;16.60;82.70;;;;;;6154127;23;19912;-66
2022/08/31 06:57:04;;;;;;;;;;;16.70;81.80;;;;;;6150672;23;19947;-67
2022/08/31 06:59:31;;;;;;;;;;;16.60;81.10;;;;;;6153363;23;19956;-66
2022/08/31 07:01:58;;;;;;;;;;;16.60;80.50;;;;;;6153772;23;19909;-67
2022/08/31 07:04:25;;;;;;;;;;;16.60;80.20;;;;;;6153755;23;19908;-67
2022/08/31 07:06:51;;;;;;;;;;;16.60;79.90;;;;;;6153395;23;20322;-67
2022/08/31 07:09:18;;;;;;;;;;;16.60;79.50;;;;;;6148898;23;19929;-67
2022/08/31 07:11:46;;;;;;;;;;;16.60;79.40;;;;;;6147929;23;20018;-65
2022/08/31 07:14:13;;;;;;;;;;;16.70;79.50;;;;;;6150379;23;19908;-67
2022/08/31 07:16:40;;;;;;;;;;;16.70;79.00;;;;;;6149797;23;20008;-66
2022/08/31 07:19:07;;;;;;;;;;;16.70;78.00;;;;;;6150098;23;20014;-66
2022/08/31 07:21:47;;;;;;;;;;;16.70;77.40;;;;;;6150796;23;19909;-66
2022/08/31 07:24:14;;;;;;;;;;;16.70;77.70;;;;;;6150159;23;19908;-66
2022/08/31 07:26:42;;;;;;;;;;;16.60;77.60;;;;;;6148752;23;19920;-66
2022/08/31 07:29:09;;;;;;;;;;;16.60;77.50;;;;;;6150216;23;19944;-66
2022/08/31 07:31:49;;;;;;;;;;;16.60;77.40;;;;;;6150677;23;19909;-66
2022/08/31 07:34:24;;;;;;;;;;;16.60;77.40;;;;;;6149290;23;20527;-66
2022/08/31 07:42:24;;;;;;;;;;;16.60;78.00;;;;;;6148288;23;20055;-65
2022/08/31 07:44:51;;;;;;;;;;;16.60;78.00;;;;;;6147230;23;19908;-65
2022/08/31 07:47:19;;;;;;;;;;;16.60;78.40;;;;;;6148679;23;20244;-65
2022/08/31 07:49:50;;;;;;;;;;;16.60;78.00;;;;;;6149848;23;19912;-65
2022/08/31 07:52:23;;;;;;;;;;;16.50;78.10;;;;;;6149208;23;19909;-65
2022/08/31 07:54:50;;;;;;;;;;;16.50;78.00;;;;;;6148317;23;20001;-65
2022/08/31 07:57:17;;;;;;;;;;;16.60;78.00;;;;;;6147235;23;20620;-65
2022/08/31 07:59:45;;;;;;;;;;;16.60;78.20;;;;;;6147078;23;19936;-65
2022/08/31 08:02:13;;;;;;;;;;;16.60;78.00;;;;;;6150063;23;19936;-66
2022/08/31 08:04:43;;;;;;;;;;;16.60;78.10;;;;;;6150413;23;19908;-65
2022/08/31 08:07:10;;;;;;;;;;;16.60;78.20;;;;;;6150191;23;19978;-66
2022/08/31 08:09:37;;;;;;;;;;;16.60;78.20;;;;;;6149766;23;19987;-66
2022/08/31 08:12:07;;;;;;;;;;;16.60;78.00;;;;;;6147801;23;19930;-67
2022/08/31 08:14:34;;;;;;;;;;;16.60;78.20;;;;;;6148914;23;19909;-67
2022/08/31 08:17:01;;;;;;;;;;;16.60;78.70;;;;;;6149748;23;20314;-67
2022/08/31 08:19:28;;;;;;;;;;;16.60;78.70;;;;;;6146055;23;19915;-66
2022/08/31 08:21:54;;;;;;;;;;;16.60;78.70;;;;;;6149095;23;20316;-66
2022/08/31 08:24:21;;;;;;;;;;;16.50;79.20;;;;;;6148206;23;19917;-67
2022/08/31 08:26:49;;;;;;;;;;;16.50;79.50;;;;;;6147748;23;20308;-66
2022/08/31 08:29:15;;;;;;;;;;;16.50;80.00;;;;;;6147718;23;19923;-66
2022/08/31 08:31:42;;;;;;;;;;;16.50;80.50;;;;;;6148183;23;19913;-66
2022/08/31 08:34:09;;;;;;;;;;;16.50;81.00;;;;;;6148677;23;19944;-67
2022/08/31 08:36:36;;;;;;;;;;;16.50;82.20;;;;;;6148870;23;20316;-66
2022/08/31 08:39:04;;;;;;;;;;;16.30;82.70;;;;;;6149919;23;19983;-66
2022/08/31 08:41:31;;;;;;;;;;;16.30;83.20;;;;;;6149561;23;19905;-66
2022/08/31 08:43:59;;;;;;;;;;;16.30;83.70;;;;;;6147766;23;19908;-66
2022/08/31 08:46:29;;;;;;;;;;;16.20;84.10;;;;;;6147226;23;19917;-67
2022/08/31 08:48:57;;;;;;;;;;;16.20;84.40;;;;;;6149226;23;20320;-67
2022/08/31 08:51:25;;;;;;;;;;;16.20;84.50;;;;;;6147318;23;19908;-67
2022/08/31 08:53:53;;;;;;;;;;;16.20;84.70;;;;;;6148085;23;20346;-67
2022/08/31 08:56:21;;;;;;;;;;;16.20;85.00;;;;;;6121502;23;19913;-67
2022/08/31 08:58:48;;;;;;;;;;;16.20;85.10;;;;;;6145965;23;19919;-67
2022/08/31 09:01:24;;;;;;;;;;;16.20;85.00;;;;;;6147541;23;20127;-67
2022/08/31 09:03:55;;;;;;;;;;;16.20;85.00;;;;;;6147573;23;19909;-67
2022/08/31 09:06:31;;;;;;;;;;;16.20;85.00;;;;;;6148519;23;19916;-68
2022/08/31 09:09:07;;;;;;;;;;;16.10;84.90;;;;;;6149773;23;19904;-67
2022/08/31 09:11:53;;;;;;;;;;;16.10;85.00;;;;;;6147680;23;19924;-68
2022/08/31 09:14:24;;;;;;;;;;;16.10;85.10;;;;;;6149342;23;20256;-68
2022/08/31 09:17:04;;;;;;;;;;;16.20;84.70;;;;;;6149798;23;19909;-68
2022/08/31 09:19:57;;;;;;;;;;;16.10;84.90;;;;;;6147859;23;20628;-67
2022/08/31 09:22:19;;;;;;;;;;;16.10;84.90;;;;;;6149075;23;20337;-68
2022/08/31 09:24:51;;;;;;;;;;;16.20;84.60;;;;;;6149653;23;19909;-68
2022/08/31 09:27:18;;;;;;;;;;;16.20;84.90;;;;;;6146841;23;20244;-68
2022/08/31 09:29:55;;;;;;;;;;;16.10;84.80;;;;;;6146995;23;20238;-67
2022/08/31 09:32:23;;;;;;;;;;;16.10;84.80;;;;;;6149011;23;20331;-68
2022/08/31 09:34:53;;;;;;;;;;;16.10;84.70;;;;;;6149533;23;19913;-67
2022/08/31 09:37:27;;;;;;;;;;;16.10;85.00;;;;;;6149422;23;20320;-68
2022/08/31 09:39:54;;;;;;;;;;;16.10;85.00;;;;;;6149126;23;19908;-69
2022/08/31 09:42:29;;;;;;;;;;;16.00;85.00;;;;;;6147609;23;19908;-68
2022/08/31 09:45:00;;;;;;;;;;;16.10;85.10;;;;;;6147865;23;19911;-68
2022/08/31 09:47:47;;;;;;;;;;;16.00;85.00;;;;;;6147924;23;20106;-69
2022/08/31 09:50:32;;;;;;;;;;;16.00;85.10;;;;;;6149102;23;19909;-68
2022/08/31 09:56:12;;;;;;;;;;;16.00;84.90;;;;;;6149419;23;19918;-69
2022/08/31 09:58:42;;;;;;;;;;;16.00;84.90;;;;;;6144079;23;20304;-68
2022/08/31 10:01:29;;;;;;;;;;;15.90;85.10;;;;;;6148720;23;19908;-68
2022/08/31 10:04:16;;;;;;;;;;;16.00;85.20;;;;;;6147669;23;19935;-69
2022/08/31 10:06:45;;;;;;;;;;;15.90;85.00;;;;;;6149020;23;20221;-69
2022/08/31 10:28:20;;;;;;;;;;;15.90;84.60;;;;;;6136014;23;19958;-68
2022/08/31 10:30:49;;;;;;;;;;;15.90;84.20;;;;;;6090750;23;19917;-69
2022/08/31 10:33:17;;;;;;;;;;;15.90;84.20;;;;;;6095958;23;19951;-70
2022/08/31 10:35:50;;;;;;;;;;;15.90;84.20;;;;;;6095719;23;19939;-68
2022/08/31 10:38:34;;;;;;;;;;;15.90;84.20;;;;;;6121525;23;19905;-69
2022/08/31 10:41:16;;;;;;;;;;;15.90;84.30;;;;;;6121588;23;19913;-68
2022/08/31 10:44:16;;;;;;;;;;;15.90;84.50;;;;;;6121551;23;19919;-69
2022/08/31 10:46:43;;;;;;;;;;;15.80;84.40;;;;;;6121055;23;19925;-69
2022/08/31 10:49:10;;;;;;;;;;;15.80;84.20;;;;;;6121699;23;19909;-69
2022/08/31 10:51:45;;;;;;;;;;;15.80;84.40;;;;;;6096251;23;19909;-68
2022/08/31 10:54:11;;;;;;;;;;;15.80;84.20;;;;;;6096489;23;19993;-69
2022/08/31 10:56:57;;;;;;;;;;;15.90;84.20;;;;;;6120897;23;19941;-69
2022/08/31 10:59:30;;;;;;;;;;;15.80;84.20;;;;;;6093818;23;19983;-69
2022/08/31 11:02:04;;;;;;;;;;;15.80;83.70;;;;;;6121329;23;19940;-68
2022/08/31 11:04:49;;;;;;;;;;;15.80;83.70;;;;;;6096133;23;19912;-69
2022/08/31 11:07:15;;;;;;;;;;;15.90;83.60;;;;;;6123794;23;19913;-68
2022/08/31 11:09:49;;;;;;;;;;;15.90;83.70;;;;;;6123914;23;20212;-69
2022/08/31 11:12:20;;;;;;;;;;;15.90;83.70;;;;;;6097097;23;19916;-69
2022/08/31 11:15:08;;;;;;;;;;;15.90;83.80;;;;;;6098949;23;20252;-69
2022/08/31 11:17:58;;;;;;;;;;;15.90;83.90;;;;;;6099090;23;19908;-69
2022/08/31 11:20:24;;;;;;;;;;;15.90;83.60;;;;;;6069308;23;19909;-70
2022/08/31 11:23:17;;;;;;;;;;;15.90;83.20;;;;;;6123190;23;19905;-69
2022/08/31 11:26:02;;;;;;;;;;;15.90;83.50;;;;;;6118941;23;19905;-70
2022/08/31 11:28:37;;;;;;;;;;;15.90;83.50;;;;;;6127622;23;20297;-69
2022/08/31 11:31:13;;;;;;;;;;;15.90;83.60;;;;;;6128817;23;19912;-69
2022/08/31 11:33:43;;;;;;;;;;;16.00;83.50;;;;;;6128068;23;19912;-68
2022/08/31 11:36:10;;;;;;;;;;;16.00;83.30;;;;;;6127268;23;19916;-71
2022/08/31 11:38:40;;;;;;;;;;;15.90;83.10;;;;;;6151471;23;19901;-69
2022/08/31 11:41:09;;;;;;;;;;;15.90;83.00;;;;;;6152399;23;19915;-70
2022/08/31 11:43:36;;;;;;;;;;;15.90;83.10;;;;;;6153012;23;19916;-70
2022/08/31 11:46:30;;;;;;;;;;;15.90;83.20;;;;;;6152613;23;20276;-69
2022/08/31 11:48:57;;;;;;;;;;;16.00;83.20;;;;;;6152248;23;19909;-69
2022/08/31 11:51:32;;;;;;;;;;;16.00;83.30;;;;;;6126632;23;19936;-68
2022/08/31 11:54:00;;;;;;;;;;;15.90;83.20;;;;;;6152856;23;20317;-68
2022/08/31 11:56:46;;;;;;;;;;;16.00;83.20;;;;;;6152802;23;19912;-68
2022/08/31 11:59:25;;;;;;;;;;;16.00;83.20;;;;;;6150464;23;20376;-67
2022/08/31 12:01:55;;;;;;;;;;;16.00;83.30;;;;;;6153384;23;19916;-68
2022/08/31 12:04:52;;;;;;;;;;;15.90;83.30;;;;;;6152990;23;19919;-68
2022/08/31 12:07:28;;;;;;;;;;;15.90;83.40;;;;;;6152322;23;19976;-68
2022/08/31 12:10:13;;;;;;;;;;;15.90;83.40;;;;;;6153222;23;19913;-70
2022/08/31 12:12:58;;;;;;;;;;;15.90;83.40;;;;;;6152547;23;19909;-70
2022/08/31 12:15:37;;;;;;;;;;;15.90;83.60;;;;;;6152806;23;19908;-67
2022/08/31 12:18:04;;;;;;;;;;;15.90;83.50;;;;;;6152779;23;19932;-67
2022/08/31 12:23:37;;;;;;;;;;;15.80;84.10;;;;;;6152667;23;20295;-69
2022/08/31 12:26:03;;;;;;;;;;;15.80;84.40;;;;;;6152230;23;19924;-68
2022/08/31 12:28:39;;;;;;;;;;;15.80;84.00;;;;;;6148506;23;20213;-68
2022/08/31 12:31:09;;;;;;;;;;;15.80;83.90;;;;;;6126887;23;19909;-69
2022/08/31 12:33:35;;;;;;;;;;;15.80;83.80;;;;;;6126691;23;20396;-68
2022/08/31 12:36:18;;;;;;;;;;;15.70;83.90;;;;;;6151552;23;19905;-68
2022/08/31 12:38:45;;;;;;;;;;;15.70;83.80;;;;;;6152312;23;19905;-68
2022/08/31 12:41:12;;;;;;;;;;;15.70;83.90;;;;;;6151902;23;19905;-68
2022/08/31 12:43:47;;;;;;;;;;;15.70;83.90;;;;;;6126472;23;20328;-69
2022/08/31 12:46:17;;;;;;;;;;;15.70;83.70;;;;;;6126506;23;20260;-68
2022/08/31 12:48:55;;;;;;;;;;;15.70;83.80;;;;;;6126632;23;19931;-68
2022/08/31 12:51:22;;;;;;;;;;;15.70;83.80;;;;;;6126536;23;19912;-67
2022/08/31 12:53:58;;;;;;;;;;;15.80;84.00;;;;;;6152694;23;20335;-67
2022/08/31 12:56:37;;;;;;;;;;;15.70;84.00;;;;;;6125775;23;19987;-68
2022/08/31 12:59:22;;;;;;;;;;;15.70;83.80;;;;;;6124652;23;20235;-67
2022/08/31 13:01:49;;;;;;;;;;;15.70;83.70;;;;;;6152556;23;19908;-67
2022/08/31 13:04:16;;;;;;;;;;;15.80;83.80;;;;;;6152118;23;20240;-67
2022/08/31 13:06:44;;;;;;;;;;;15.80;83.70;;;;;;6152196;23;19921;-67
2022/08/31 13:09:23;;;;;;;;;;;15.70;83.90;;;;;;6152920;23;20321;-67
2022/08/31 13:11:50;;;;;;;;;;;15.70;84.30;;;;;;6152201;23;19913;-67
2022/08/31 13:14:25;;;;;;;;;;;15.70;84.80;;;;;;6152868;23;20387;-67
2022/08/31 13:16:55;;;;;;;;;;;15.80;84.80;;;;;;6152697;23;19908;-67
2022/08/31 13:19:25;;;;;;;;;;;15.70;85.00;;;;;;6152404;23;20248;-68
2022/08/31 13:21:54;;;;;;;;;;;15.70;85.40;;;;;;6126803;23;19992;-68
2022/08/31 13:24:23;;;;;;;;;;;15.70;86.40;;;;;;6152101;23;19915;-67
2022/08/31 13:27:09;;;;;;;;;;;15.60;87.00;;;;;;6151558;23;19920;-68
2022/08/31 13:29:45;;;;;;;;;;;15.50;87.80;;;;;;6129470;23;20340;-68
2022/08/31 13:32:13;;;;;;;;;;;15.50;88.10;;;;;;6152434;23;19905;-68
2022/08/31 13:34:42;;;;;;;;;;;15.40;88.40;;;;;;6152808;23;19915;-67
2022/08/31 13:37:11;;;;;;;;;;;15.40;88.70;;;;;;6126553;23;19944;-67
2022/08/31 13:39:43;;;;;;;;;;;15.40;88.80;;;;;;6151989;23;19916;-67
2022/08/31 13:42:10;;;;;;;;;;;15.40;89.00;;;;;;6152202;23;19932;-68
2022/08/31 13:44:41;;;;;;;;;;;15.40;88.90;;;;;;6152167;23;20427;-68
2022/08/31 13:47:22;;;;;;;;;;;15.40;88.90;;;;;;6126682;23;20007;-67
2022/08/31 13:49:51;;;;;;;;;;;15.40;88.90;;;;;;6151765;23;19908;-67
2022/08/31 13:52:19;;;;;;;;;;;15.40;89.00;;;;;;6152488;23;20216;-68
2022/08/31 13:55:06;;;;;;;;;;;15.40;89.10;;;;;;6152624;23;19919;-68
2022/08/31 13:57:34;;;;;;;;;;;15.40;89.10;;;;;;6151160;23;19987;-68
2022/08/31 14:00:19;;;;;;;;;;;15.40;88.90;;;;;;6149965;23;19915;-68
2022/08/31 14:02:46;;;;;;;;;;;15.30;88.80;;;;;;6152767;23;19936;-68
2022/08/31 14:05:14;;;;;;;;;;;15.30;88.90;;;;;;6152425;23;20280;-68
2022/08/31 14:28:55;;;;;;;;;;;15.30;88.70;;;;;;6146094;23;20320;-67
2022/08/31 14:31:23;;;;;;;;;;;15.30;88.70;;;;;;6151429;23;19917;-67
2022/08/31 14:34:06;;;;;;;;;;;15.30;88.60;;;;;;6151909;23;19904;-68
2022/08/31 14:36:34;;;;;;;;;;;15.30;88.60;;;;;;6151859;23;20288;-68
2022/08/31 14:39:00;;;;;;;;;;;15.30;88.50;;;;;;6126104;23;19937;-68
2022/08/31 14:41:31;;;;;;;;;;;15.30;88.60;;;;;;6151703;23;19983;-68
2022/08/31 14:44:05;;;;;;;;;;;15.30;88.80;;;;;;6151723;23;19980;-68
2022/08/31 14:46:32;;;;;;;;;;;15.30;88.80;;;;;;6127083;23;19916;-68
2022/08/31 14:49:00;;;;;;;;;;;15.30;88.80;;;;;;6151787;23;20212;-68
2022/08/31 14:51:27;;;;;;;;;;;15.30;88.80;;;;;;6151702;23;19905;-68
2022/08/31 14:53:57;;;;;;;;;;;15.30;88.80;;;;;;6151831;23;19909;-68
2022/08/31 14:56:25;;;;;;;;;;;15.30;89.10;;;;;;6151511;23;19905;-68
2022/08/31 14:58:53;;;;;;;;;;;15.30;89.60;;;;;;6124548;23;20343;-68
2022/08/31 15:01:20;;;;;;;;;;;15.30;89.80;;;;;;6153978;23;19962;-68
2022/08/31 15:03:47;;;;;;;;;;;15.30;89.90;;;;;;6153624;23;19979;-68
2022/08/31 15:06:18;;;;;;;;;;;15.20;90.00;;;;;;6153507;23;19959;-68
2022/08/31 15:08:45;;;;;;;;;;;15.20;90.30;;;;;;6152986;23;19944;-68
2022/08/31 15:11:11;;;;;;;;;;;15.20;90.20;;;;;;6153521;23;19936;-68
2022/08/31 15:13:38;;;;;;;;;;;15.20;90.30;;;;;;6153684;23;19908;-68
2022/08/31 15:16:06;;;;;;;;;;;15.20;90.30;;;;;;6153795;23;19956;-67
2022/08/31 15:18:33;;;;;;;;;;;15.20;90.30;;;;;;6153411;23;19909;-67
2022/08/31 15:21:01;;;;;;;;;;;15.20;90.40;;;;;;6153799;23;19956;-68
2022/08/31 15:23:28;;;;;;;;;;;15.20;90.30;;;;;;6153958;23;19912;-68
2022/08/31 15:26:05;;;;;;;;;;;15.20;90.40;;;;;;6153491;23;19909;-68
2022/08/31 15:28:36;;;;;;;;;;;15.20;90.20;;;;;;6151122;23;19921;-68
2022/08/31 15:31:10;;;;;;;;;;;15.20;90.40;;;;;;6153254;23;19909;-68
2022/08/31 15:33:43;;;;;;;;;;;15.20;90.30;;;;;;6153055;23;19904;-68
2022/08/31 15:36:11;;;;;;;;;;;15.20;90.30;;;;;;6153396;23;19913;-68
2022/08/31 15:38:38;;;;;;;;;;;15.20;90.30;;;;;;6153058;23;19913;-68
2022/08/31 15:41:05;;;;;;;;;;;15.20;90.40;;;;;;6153306;23;19936;-67
2022/08/31 15:43:32;;;;;;;;;;;15.20;90.40;;;;;;6153131;23;19947;-68
2022/08/31 15:46:00;;;;;;;;;;;15.20;90.50;;;;;;6152567;23;19912;-68
2022/08/31 15:48:44;;;;;;;;;;;15.20;90.70;;;;;;6153194;23;19932;-68
2022/08/31 15:51:20;;;;;;;;;;;15.20;90.90;;;;;;6130266;23;19940;-68
2022/08/31 15:53:48;;;;;;;;;;;15.10;91.00;;;;;;6153196;23;19912;-68
2022/08/31 15:56:14;;;;;;;;;;;15.10;91.10;;;;;;6152842;23;19957;-67
2022/08/31 15:58:41;;;;;;;;;;;15.00;91.20;;;;;;6151287;23;19931;-68
2022/08/31 16:01:12;;;;;;;;;;;15.00;91.50;;;;;;6153580;23;19909;-68
2022/08/31 16:03:40;;;;;;;;;;;15.00;91.50;;;;;;6153004;23;20317;-68
2022/08/31 16:06:12;;;;;;;;;;;15.00;91.60;;;;;;6152951;23;19940;-68
2022/08/31 16:08:40;;;;;;;;;;;15.00;91.70;;;;;;6152380;23;19909;-68
2022/08/31 16:11:09;;;;;;;;;;;15.00;91.70;;;;;;6152883;23;19904;-67
2022/08/31 16:13:44;;;;;;;;;;;15.00;91.90;;;;;;6128047;23;19987;-68
2022/08/31 16:16:10;;;;;;;;;;;15.00;91.90;;;;;;6128368;23;19915;-68
2022/08/31 16:18:37;;;;;;;;;;;14.90;92.00;;;;;;6152872;23;20387;-68
2022/08/31 16:21:04;;;;;;;;;;;15.00;92.20;;;;;;6152838;23;19909;-68
2022/08/31 16:23:32;;;;;;;;;;;15.00;92.30;;;;;;6153146;23;20290;-68
2022/08/31 16:25:59;;;;;;;;;;;14.90;92.20;;;;;;6152885;23;20039;-68
2022/08/31 16:28:25;;;;;;;;;;;14.90;92.30;;;;;;6152666;23;19925;-67
2022/08/31 16:30:52;;;;;;;;;;;14.90;92.40;;;;;;6151272;23;19940;-67
2022/08/31 16:33:19;;;;;;;;;;;14.90;92.50;;;;;;6152461;23;19908;-67
2022/08/31 16:35:46;;;;;;;;;;;14.90;92.60;;;;;;6152675;23;19908;-68
2022/08/31 16:38:13;;;;;;;;;;;14.90;92.60;;;;;;6152809;23;19908;-68
2022/08/31 16:40:40;;;;;;;;;;;14.90;92.60;;;;;;6152522;23;19955;-68
2022/08/31 16:43:06;;;;;;;;;;;14.80;92.60;;;;;;6153338;23;19908;-67
2022/08/31 16:45:33;;;;;;;;;;;14.80;92.70;;;;;;6153218;23;20308;-68
2022/08/31 16:50:46;;;;;;;;;;;14.80;92.70;;;;;;6152666;23;19963;-68
2022/08/31 16:53:16;;;;;;;;;;;14.80;92.80;;;;;;6153186;23;20016;-68
2022/08/31 16:55:43;;;;;;;;;;;14.80;92.80;;;;;;6152553;23;20309;-68
2022/08/31 16:58:13;;;;;;;;;;;14.70;92.80;;;;;;6152501;23;20008;-68
2022/08/31 17:00:40;;;;;;;;;;;14.80;92.80;;;;;;6151157;23;19988;-68
2022/08/31 17:21:01;;;;;;;;;;;14.60;92.80;;;;;;6150493;23;19972;-68
2022/08/31 17:23:27;;;;;;;;;;;14.60;92.70;;;;;;6152523;23;20251;-68
2022/08/31 17:25:55;;;;;;;;;;;14.60;92.90;;;;;;6152304;23;19951;-68
2022/08/31 17:28:24;;;;;;;;;;;14.60;92.90;;;;;;6152580;23;20024;-68
2022/08/31 17:30:50;;;;;;;;;;;14.60;92.80;;;;;;6123638;23;19909;-68
2022/08/31 17:33:21;;;;;;;;;;;14.60;92.80;;;;;;6152057;23;19909;-68